Time;durP1;ratioP1;P1;durP2;ratioP2;P2;SDS_P1;SDS_P2;PMS_P1;PMS_P2;Temp;Humidity;BMP_temperature;BMP_pressure;BME280_temperature;BME280_humidity;BME280_pressure;Samples;Min_cycle;Max_cycle;Signal;HPM_P1;HPM_P2
2022/11/15 00:00:52;;;;;;;;;;;12.20;99.90;;;;;;5095041;28;19909;-74
2022/11/15 00:03:19;;;;;;;;;;;12.20;99.90;;;;;;5095882;28;19920;-75
2022/11/15 00:05:45;;;;;;;;;;;12.20;99.90;;;;;;5094710;28;19920;-75
2022/11/15 00:08:11;;;;;;;;;;;12.20;99.90;;;;;;5095125;28;19916;-75
2022/11/15 00:10:37;;;;;;;;;;;12.20;99.90;;;;;;5095024;28;19908;-75
2022/11/15 00:13:09;;;;;;;;;;;12.20;99.90;;;;;;5094353;28;19918;-75
2022/11/15 00:15:39;;;;;;;;;;;12.20;99.90;;;;;;5093438;28;20395;-75
2022/11/15 00:18:05;;;;;;;;;;;12.20;99.90;;;;;;5094488;28;19910;-75
2022/11/15 00:20:31;;;;;;;;;;;12.20;99.90;;;;;;5094628;28;20353;-75
2022/11/15 00:22:56;;;;;;;;;;;12.20;99.90;;;;;;5094197;28;19954;-75
2022/11/15 00:25:22;;;;;;;;;;;12.20;99.90;;;;;;5094612;28;19908;-75
2022/11/15 00:27:47;;;;;;;;;;;12.30;99.90;;;;;;5094109;28;19922;-75
2022/11/15 00:30:13;;;;;;;;;;;12.30;99.90;;;;;;5094812;28;19908;-74
2022/11/15 00:32:39;;;;;;;;;;;12.30;99.90;;;;;;5094883;28;19911;-74
2022/11/15 00:35:04;;;;;;;;;;;12.40;99.90;;;;;;5093971;28;19974;-75
2022/11/15 00:37:30;;;;;;;;;;;12.40;99.90;;;;;;5093030;28;19912;-75
2022/11/15 00:39:55;;;;;;;;;;;12.40;99.90;;;;;;5093748;28;19909;-75
2022/11/15 00:42:21;;;;;;;;;;;12.40;99.90;;;;;;5094125;28;20273;-75
2022/11/15 00:44:47;;;;;;;;;;;12.40;99.90;;;;;;5093803;28;19908;-77
2022/11/15 00:47:12;;;;;;;;;;;12.40;99.90;;;;;;5094165;28;19982;-76
2022/11/15 00:49:38;;;;;;;;;;;12.40;99.90;;;;;;5094057;28;19915;-76
2022/11/15 00:52:03;;;;;;;;;;;12.50;99.90;;;;;;5093090;28;19913;-76
2022/11/15 00:54:29;;;;;;;;;;;12.50;99.90;;;;;;5093810;28;19912;-75
2022/11/15 00:56:54;;;;;;;;;;;12.50;99.90;;;;;;5093447;28;19908;-75
2022/11/15 00:59:20;;;;;;;;;;;12.50;99.90;;;;;;5093576;28;20289;-74
2022/11/15 01:01:45;;;;;;;;;;;12.50;99.90;;;;;;5091877;28;19948;-76
2022/11/15 01:04:11;;;;;;;;;;;12.60;99.90;;;;;;5094667;28;19909;-75
2022/11/15 01:06:37;;;;;;;;;;;12.60;99.90;;;;;;5094041;28;19926;-75
2022/11/15 01:09:02;;;;;;;;;;;12.60;99.90;;;;;;5093007;28;19923;-75
2022/11/15 01:11:28;;;;;;;;;;;12.60;99.90;;;;;;5093785;28;19915;-75
2022/11/15 01:13:54;;;;;;;;;;;12.60;99.90;;;;;;5093397;28;20398;-76
2022/11/15 01:16:20;;;;;;;;;;;12.60;99.90;;;;;;5093427;28;19957;-75
2022/11/15 01:18:45;;;;;;;;;;;12.70;99.90;;;;;;5093179;28;19991;-74
2022/11/15 01:21:15;;;;;;;;;;;12.70;99.90;;;;;;5093105;28;19991;-74
2022/11/15 01:23:41;;;;;;;;;;;12.70;99.90;;;;;;5093295;28;20069;-75
2022/11/15 01:26:09;;;;;;;;;;;12.80;99.90;;;;;;5092777;28;20428;-74
2022/11/15 01:28:35;;;;;;;;;;;12.80;99.90;;;;;;5093150;28;19916;-75
2022/11/15 01:31:02;;;;;;;;;;;12.80;99.90;;;;;;5092761;28;19919;-75
2022/11/15 01:33:28;;;;;;;;;;;12.80;99.90;;;;;;5092143;28;19912;-75
2022/11/15 01:35:54;;;;;;;;;;;12.80;99.90;;;;;;5092797;28;19915;-75
2022/11/15 01:38:20;;;;;;;;;;;12.80;99.90;;;;;;5093207;28;20396;-74
2022/11/15 01:40:45;;;;;;;;;;;12.80;99.90;;;;;;5093013;28;19915;-74
2022/11/15 01:43:20;;;;;;;;;;;12.80;99.90;;;;;;5092782;28;19916;-75
2022/11/15 01:45:50;;;;;;;;;;;12.90;99.90;;;;;;5093288;28;19958;-75
2022/11/15 01:48:15;;;;;;;;;;;12.90;99.90;;;;;;5092897;28;19923;-74
2022/11/15 01:50:41;;;;;;;;;;;12.90;99.90;;;;;;5093207;28;19908;-75
2022/11/15 01:53:07;;;;;;;;;;;12.90;99.90;;;;;;5091574;28;20323;-75
2022/11/15 01:55:33;;;;;;;;;;;12.90;99.90;;;;;;5092263;28;19914;-75
2022/11/15 01:58:00;;;;;;;;;;;13.00;99.90;;;;;;5091051;28;19912;-77
2022/11/15 02:00:25;;;;;;;;;;;12.80;99.90;;;;;;5092562;28;19995;-81
2022/11/15 02:02:52;;;;;;;;;;;12.50;99.90;;;;;;5092288;28;19954;-83
2022/11/15 02:05:17;;;;;;;;;;;12.20;99.90;;;;;;5092849;28;19930;-83
2022/11/15 02:07:44;;;;;;;;;;;12.00;99.90;;;;;;5091402;28;19920;-83
2022/11/15 02:10:17;;;;;;;;;;;11.70;99.90;;;;;;5090985;28;20658;-79
2022/11/15 02:12:42;;;;;;;;;;;11.50;99.90;;;;;;5093000;28;19936;-78
2022/11/15 02:15:08;;;;;;;;;;;11.30;99.90;;;;;;5092195;28;19950;-78
2022/11/15 02:17:36;;;;;;;;;;;11.10;99.90;;;;;;5092953;28;20022;-77
2022/11/15 02:20:20;;;;;;;;;;;11.00;99.90;;;;;;5092304;28;19908;-78
2022/11/15 02:23:08;;;;;;;;;;;10.80;99.90;;;;;;5093117;28;19995;-76
2022/11/15 02:25:46;;;;;;;;;;;10.70;99.90;;;;;;5092753;28;20379;-76
2022/11/15 02:28:20;;;;;;;;;;;10.50;99.90;;;;;;5092475;28;19973;-76
2022/11/15 02:30:50;;;;;;;;;;;10.50;99.90;;;;;;5092725;28;20270;-76
2022/11/15 02:33:30;;;;;;;;;;;10.50;99.90;;;;;;5090951;28;19954;-76
2022/11/15 02:36:05;;;;;;;;;;;10.40;99.90;;;;;;5092137;28;19909;-76
2022/11/15 02:38:37;;;;;;;;;;;10.30;99.90;;;;;;5092721;28;20454;-75
2022/11/15 02:41:06;;;;;;;;;;;10.30;99.90;;;;;;5092152;28;19987;-76
2022/11/15 02:49:25;;;;;;;;;;;10.20;99.90;;;;;;5093524;28;19923;-76
2022/11/15 02:51:51;;;;;;;;;;;10.20;99.90;;;;;;5095726;28;20357;-76
2022/11/15 02:54:20;;;;;;;;;;;10.20;99.90;;;;;;5094891;28;20011;-76
2022/11/15 02:56:46;;;;;;;;;;;10.20;99.90;;;;;;5094612;28;19915;-76
2022/11/15 02:59:30;;;;;;;;;;;10.20;99.90;;;;;;5091956;28;19908;-76
2022/11/15 03:02:16;;;;;;;;;;;10.10;99.90;;;;;;5094307;28;19908;-76
2022/11/15 03:04:42;;;;;;;;;;;10.20;99.90;;;;;;5095426;28;19915;-76
2022/11/15 03:07:10;;;;;;;;;;;10.20;99.90;;;;;;5095088;28;19920;-74
2022/11/15 03:09:51;;;;;;;;;;;10.20;99.90;;;;;;5095784;28;20361;-75
2022/11/15 03:12:37;;;;;;;;;;;10.20;99.90;;;;;;5095519;28;20392;-74
2022/11/15 03:15:18;;;;;;;;;;;10.10;99.90;;;;;;5086973;28;20436;-75
2022/11/15 03:17:53;;;;;;;;;;;10.10;99.90;;;;;;5096029;28;19916;-75
2022/11/15 03:20:19;;;;;;;;;;;10.10;99.90;;;;;;5095353;28;19976;-75
2022/11/15 03:22:46;;;;;;;;;;;10.00;99.90;;;;;;5095932;28;19912;-75
2022/11/15 03:25:16;;;;;;;;;;;10.00;99.90;;;;;;5095270;28;19908;-76
2022/11/15 03:27:43;;;;;;;;;;;9.90;99.90;;;;;;5095802;28;19916;-74
2022/11/15 03:30:10;;;;;;;;;;;9.90;99.90;;;;;;5093648;28;20280;-75
2022/11/15 03:32:41;;;;;;;;;;;9.90;99.90;;;;;;5095655;28;20371;-74
2022/11/15 03:35:33;;;;;;;;;;;9.80;99.90;;;;;;5095054;28;19908;-75
2022/11/15 03:37:58;;;;;;;;;;;9.90;99.90;;;;;;5092558;28;19973;-75
2022/11/15 03:40:36;;;;;;;;;;;9.90;99.90;;;;;;5095599;28;19912;-76
2022/11/15 03:43:02;;;;;;;;;;;9.70;99.90;;;;;;5093778;28;19912;-76
2022/11/15 03:45:31;;;;;;;;;;;9.70;99.90;;;;;;5095247;28;20266;-75
2022/11/15 03:48:02;;;;;;;;;;;9.70;99.90;;;;;;5094866;28;20382;-76
2022/11/15 03:50:28;;;;;;;;;;;9.70;99.90;;;;;;5095564;28;19916;-76
2022/11/15 03:52:54;;;;;;;;;;;9.60;99.90;;;;;;5095271;28;19998;-76
2022/11/15 03:55:21;;;;;;;;;;;9.60;99.90;;;;;;5094284;28;19947;-75
2022/11/15 03:57:48;;;;;;;;;;;9.50;99.90;;;;;;5094988;28;19951;-75
2022/11/15 04:00:14;;;;;;;;;;;9.50;99.90;;;;;;5094515;28;19962;-75
2022/11/15 04:02:39;;;;;;;;;;;9.50;99.90;;;;;;5093716;28;19959;-75
2022/11/15 04:05:05;;;;;;;;;;;9.50;99.90;;;;;;5094138;28;19909;-75
2022/11/15 04:07:31;;;;;;;;;;;9.60;99.90;;;;;;5095092;28;19927;-75
2022/11/15 04:10:02;;;;;;;;;;;9.50;99.90;;;;;;5094799;28;20380;-76
2022/11/15 04:12:31;;;;;;;;;;;9.50;99.90;;;;;;5094927;28;19915;-76
2022/11/15 04:15:07;;;;;;;;;;;9.50;99.90;;;;;;5094908;28;19908;-75
2022/11/15 04:17:42;;;;;;;;;;;9.40;99.90;;;;;;5093613;28;20273;-75
2022/11/15 04:25:43;;;;;;;;;;;9.40;99.90;;;;;;5094751;28;20375;-75
2022/11/15 04:28:09;;;;;;;;;;;9.40;99.90;;;;;;5094011;28;19993;-75
2022/11/15 04:30:34;;;;;;;;;;;9.30;99.90;;;;;;5094446;28;19908;-75
2022/11/15 04:33:00;;;;;;;;;;;9.20;99.90;;;;;;5094127;28;19916;-75
2022/11/15 04:35:26;;;;;;;;;;;9.30;99.90;;;;;;5094281;28;20438;-75
2022/11/15 04:37:51;;;;;;;;;;;9.20;99.90;;;;;;5094449;28;19915;-75
2022/11/15 04:40:17;;;;;;;;;;;9.20;99.90;;;;;;5093786;28;19908;-75
2022/11/15 04:42:43;;;;;;;;;;;9.20;99.90;;;;;;5094334;28;19998;-75
2022/11/15 04:45:09;;;;;;;;;;;9.20;99.90;;;;;;5093843;28;19912;-75
2022/11/15 04:47:34;;;;;;;;;;;9.20;99.90;;;;;;5094042;28;20442;-75
2022/11/15 04:50:00;;;;;;;;;;;9.10;99.90;;;;;;5093882;28;19946;-75
2022/11/15 04:52:25;;;;;;;;;;;9.20;99.90;;;;;;5093518;28;19908;-75
2022/11/15 04:54:51;;;;;;;;;;;9.10;99.90;;;;;;5094209;28;19908;-75
2022/11/15 04:57:17;;;;;;;;;;;9.20;99.90;;;;;;5093194;28;19909;-75
2022/11/15 04:59:43;;;;;;;;;;;9.10;99.90;;;;;;5093980;28;19916;-74
2022/11/15 05:02:08;;;;;;;;;;;9.10;99.90;;;;;;5093892;28;19916;-74
2022/11/15 05:04:34;;;;;;;;;;;9.10;99.90;;;;;;5093515;28;19912;-74
2022/11/15 05:07:00;;;;;;;;;;;9.10;99.90;;;;;;5093618;28;19942;-75
2022/11/15 05:09:25;;;;;;;;;;;9.20;99.90;;;;;;5093263;28;19912;-75
2022/11/15 05:11:53;;;;;;;;;;;9.10;99.90;;;;;;5092757;28;20286;-74
2022/11/15 05:14:18;;;;;;;;;;;9.20;99.90;;;;;;5091924;28;19918;-75
2022/11/15 05:16:44;;;;;;;;;;;9.10;99.90;;;;;;5093652;28;20279;-75
2022/11/15 05:19:09;;;;;;;;;;;9.10;99.90;;;;;;5091519;28;19947;-75
2022/11/15 05:21:35;;;;;;;;;;;9.10;99.90;;;;;;5092368;28;19947;-74
2022/11/15 05:24:01;;;;;;;;;;;9.10;99.90;;;;;;5093479;28;19908;-75
2022/11/15 05:26:27;;;;;;;;;;;9.10;99.90;;;;;;5092875;28;19953;-74
2022/11/15 05:28:54;;;;;;;;;;;9.10;99.90;;;;;;5093647;28;20010;-74
2022/11/15 05:31:20;;;;;;;;;;;9.10;99.90;;;;;;5092911;28;19919;-74
2022/11/15 05:33:45;;;;;;;;;;;9.10;99.90;;;;;;5093376;28;19908;-74
2022/11/15 05:36:17;;;;;;;;;;;9.00;99.90;;;;;;5092828;28;20380;-75
2022/11/15 05:38:43;;;;;;;;;;;9.00;99.90;;;;;;5093194;28;20116;-75
2022/11/15 05:41:10;;;;;;;;;;;9.10;99.90;;;;;;5091607;28;19912;-75
2022/11/15 05:43:36;;;;;;;;;;;9.10;99.90;;;;;;5093335;28;20021;-75
2022/11/15 05:46:04;;;;;;;;;;;9.00;99.90;;;;;;5093043;28;19926;-75
2022/11/15 05:48:29;;;;;;;;;;;9.00;99.90;;;;;;5092354;28;19923;-75
2022/11/15 05:50:56;;;;;;;;;;;9.00;99.90;;;;;;5093178;28;19916;-75
2022/11/15 05:53:22;;;;;;;;;;;9.00;99.90;;;;;;5092506;28;19908;-75
2022/11/15 05:55:48;;;;;;;;;;;8.90;99.90;;;;;;5093207;28;19954;-75
2022/11/15 05:58:13;;;;;;;;;;;8.90;99.90;;;;;;5091217;28;19908;-75
2022/11/15 06:00:39;;;;;;;;;;;8.90;99.90;;;;;;5092879;28;19915;-75
2022/11/15 06:03:04;;;;;;;;;;;8.90;99.90;;;;;;5093060;28;20299;-75
2022/11/15 06:05:30;;;;;;;;;;;8.90;99.90;;;;;;5092317;28;19908;-76
2022/11/15 06:07:58;;;;;;;;;;;8.90;99.90;;;;;;5092759;28;19919;-75
2022/11/15 06:10:24;;;;;;;;;;;8.90;99.90;;;;;;5092335;28;19912;-75
2022/11/15 06:13:03;;;;;;;;;;;8.80;99.90;;;;;;5092941;28;20314;-75
2022/11/15 06:15:29;;;;;;;;;;;8.80;99.90;;;;;;5092308;28;19956;-75
2022/11/15 06:17:57;;;;;;;;;;;8.90;99.90;;;;;;5092926;28;20372;-75
2022/11/15 06:20:24;;;;;;;;;;;8.90;99.90;;;;;;5092505;28;19908;-74
2022/11/15 06:22:49;;;;;;;;;;;8.80;99.90;;;;;;5092831;28;19913;-75
2022/11/15 06:25:15;;;;;;;;;;;8.80;99.90;;;;;;5092098;28;19916;-75
2022/11/15 06:27:40;;;;;;;;;;;8.90;99.90;;;;;;5092960;28;19981;-75
2022/11/15 06:30:06;;;;;;;;;;;8.80;99.90;;;;;;5092699;28;19920;-75
2022/11/15 06:32:32;;;;;;;;;;;8.80;99.90;;;;;;5092004;28;19908;-74
2022/11/15 06:34:57;;;;;;;;;;;8.70;99.90;;;;;;5092555;28;19908;-75
2022/11/15 06:37:23;;;;;;;;;;;8.70;99.90;;;;;;5095836;28;19908;-75
2022/11/15 06:39:48;;;;;;;;;;;8.70;99.90;;;;;;5095459;28;20272;-75
2022/11/15 06:42:14;;;;;;;;;;;8.70;99.90;;;;;;5096186;28;19916;-76
2022/11/15 06:44:39;;;;;;;;;;;8.60;99.90;;;;;;5096637;28;19922;-75
2022/11/15 06:47:05;;;;;;;;;;;8.60;99.90;;;;;;5096432;28;19920;-76
2022/11/15 06:49:30;;;;;;;;;;;8.60;99.90;;;;;;5095689;28;19916;-76
2022/11/15 06:51:56;;;;;;;;;;;8.60;99.90;;;;;;5095909;28;19908;-75
2022/11/15 06:54:22;;;;;;;;;;;8.60;99.90;;;;;;5095756;28;19930;-75
2022/11/15 06:56:47;;;;;;;;;;;8.50;99.90;;;;;;5096176;28;20397;-75
2022/11/15 06:59:13;;;;;;;;;;;8.50;99.90;;;;;;5095247;28;19954;-76
2022/11/15 07:01:38;;;;;;;;;;;8.50;99.90;;;;;;5096879;28;19957;-75
2022/11/15 07:04:04;;;;;;;;;;;8.50;99.90;;;;;;5095954;28;19915;-75
2022/11/15 07:06:29;;;;;;;;;;;8.50;99.90;;;;;;5095289;28;19916;-75
2022/11/15 07:08:55;;;;;;;;;;;8.50;99.90;;;;;;5096213;28;20391;-75
2022/11/15 07:11:20;;;;;;;;;;;8.50;99.90;;;;;;5095883;28;19919;-75
2022/11/15 07:13:46;;;;;;;;;;;8.50;99.90;;;;;;5095780;28;19951;-74
2022/11/15 07:16:12;;;;;;;;;;;8.40;99.90;;;;;;5095552;28;20285;-76
2022/11/15 07:18:38;;;;;;;;;;;8.40;99.90;;;;;;5095342;28;19999;-74
2022/11/15 07:21:04;;;;;;;;;;;8.40;99.90;;;;;;5093983;28;19962;-74
2022/11/15 07:23:30;;;;;;;;;;;8.40;99.90;;;;;;5095175;28;19909;-74
2022/11/15 07:25:57;;;;;;;;;;;8.40;99.90;;;;;;5095661;28;20007;-75
2022/11/15 07:28:22;;;;;;;;;;;8.40;99.90;;;;;;5094899;28;19915;-74
2022/11/15 07:30:48;;;;;;;;;;;8.40;99.90;;;;;;5095621;28;19958;-75
2022/11/15 07:33:13;;;;;;;;;;;8.40;99.90;;;;;;5094783;28;19908;-76
2022/11/15 07:35:39;;;;;;;;;;;8.40;99.90;;;;;;5095112;28;19944;-75
2022/11/15 07:38:05;;;;;;;;;;;8.30;99.90;;;;;;5095319;28;19908;-75
2022/11/15 07:40:31;;;;;;;;;;;8.30;99.90;;;;;;5093605;28;19908;-74
2022/11/15 07:43:04;;;;;;;;;;;8.30;99.90;;;;;;5095433;28;19972;-75
2022/11/15 07:45:29;;;;;;;;;;;8.30;99.90;;;;;;5094805;28;19912;-75
2022/11/15 07:47:56;;;;;;;;;;;8.20;99.90;;;;;;5094920;28;20037;-75
2022/11/15 07:50:22;;;;;;;;;;;8.10;99.90;;;;;;5093280;28;19912;-75
2022/11/15 07:52:52;;;;;;;;;;;8.10;99.90;;;;;;5095557;28;19915;-75
2022/11/15 07:55:18;;;;;;;;;;;8.00;99.90;;;;;;5094713;28;19912;-73
2022/11/15 07:57:43;;;;;;;;;;;8.00;99.90;;;;;;5095048;28;20251;-73
2022/11/15 08:00:09;;;;;;;;;;;8.00;99.90;;;;;;5094776;28;19999;-74
2022/11/15 08:02:35;;;;;;;;;;;7.90;99.90;;;;;;5094234;28;19919;-74
2022/11/15 08:05:00;;;;;;;;;;;7.90;99.90;;;;;;5094964;28;20406;-74
2022/11/15 08:07:28;;;;;;;;;;;7.80;99.90;;;;;;5094239;28;19927;-74
2022/11/15 08:09:55;;;;;;;;;;;7.70;99.90;;;;;;5094900;28;19908;-75
2022/11/15 08:12:21;;;;;;;;;;;7.70;99.90;;;;;;5094516;28;19913;-74
2022/11/15 08:14:47;;;;;;;;;;;7.70;99.90;;;;;;5094305;28;19957;-74
2022/11/15 08:17:13;;;;;;;;;;;7.60;99.90;;;;;;5094192;28;19912;-74
2022/11/15 08:19:39;;;;;;;;;;;7.60;99.90;;;;;;5092767;28;20024;-75
2022/11/15 08:22:04;;;;;;;;;;;7.60;99.90;;;;;;5093400;28;20383;-74
2022/11/15 08:24:30;;;;;;;;;;;7.50;99.90;;;;;;5094687;28;19915;-74
2022/11/15 08:26:55;;;;;;;;;;;7.50;99.90;;;;;;5095257;28;19915;-74
2022/11/15 08:29:21;;;;;;;;;;;7.50;99.90;;;;;;5093711;28;20342;-74
2022/11/15 08:31:47;;;;;;;;;;;7.50;99.90;;;;;;5094284;28;19997;-73
2022/11/15 08:34:12;;;;;;;;;;;7.40;99.90;;;;;;5094456;28;20342;-74
2022/11/15 08:36:38;;;;;;;;;;;7.40;99.90;;;;;;5093915;28;19915;-73
2022/11/15 08:39:04;;;;;;;;;;;7.30;99.90;;;;;;5095143;28;19995;-72
2022/11/15 08:41:35;;;;;;;;;;;7.40;99.90;;;;;;5093693;28;19990;-73
2022/11/15 08:44:01;;;;;;;;;;;7.40;99.90;;;;;;5094437;28;19930;-73
2022/11/15 08:46:26;;;;;;;;;;;7.50;99.90;;;;;;5093644;28;20420;-74
2022/11/15 08:48:52;;;;;;;;;;;7.60;99.90;;;;;;5093726;28;19916;-75
2022/11/15 08:51:17;;;;;;;;;;;7.70;99.90;;;;;;5093080;28;20263;-76
2022/11/15 08:53:43;;;;;;;;;;;7.70;99.90;;;;;;5094399;28;19931;-75
2022/11/15 08:56:09;;;;;;;;;;;7.80;99.90;;;;;;5093728;28;19912;-75
2022/11/15 08:58:35;;;;;;;;;;;7.90;99.90;;;;;;5092075;28;19915;-75
2022/11/15 09:01:01;;;;;;;;;;;8.00;99.90;;;;;;5093429;28;20011;-74
2022/11/15 09:03:26;;;;;;;;;;;8.10;99.90;;;;;;5092732;28;20339;-75
2022/11/15 09:05:56;;;;;;;;;;;8.10;99.90;;;;;;5093018;28;20310;-74
2022/11/15 09:08:22;;;;;;;;;;;8.00;99.90;;;;;;5092338;28;20369;-74
2022/11/15 09:10:48;;;;;;;;;;;8.00;99.90;;;;;;5093012;28;19964;-74
2022/11/15 09:13:14;;;;;;;;;;;7.90;99.90;;;;;;5093284;28;19916;-75
2022/11/15 09:15:39;;;;;;;;;;;7.90;99.90;;;;;;5092415;28;19966;-75
2022/11/15 09:18:05;;;;;;;;;;;7.90;99.90;;;;;;5092752;28;20415;-74
2022/11/15 09:20:31;;;;;;;;;;;7.80;99.90;;;;;;5092611;28;20037;-74
2022/11/15 09:23:00;;;;;;;;;;;7.80;99.90;;;;;;5092043;28;19908;-74
2022/11/15 09:25:26;;;;;;;;;;;7.80;99.90;;;;;;5092667;28;20357;-76
2022/11/15 09:27:52;;;;;;;;;;;7.70;99.90;;;;;;5091759;28;19924;-74
2022/11/15 09:30:17;;;;;;;;;;;7.70;99.90;;;;;;5092989;28;20008;-74
2022/11/15 09:32:43;;;;;;;;;;;7.80;99.90;;;;;;5092873;28;19908;-73
2022/11/15 09:35:08;;;;;;;;;;;7.70;99.90;;;;;;5093257;28;20333;-74
2022/11/15 09:37:34;;;;;;;;;;;7.60;99.90;;;;;;5092351;28;19912;-74
2022/11/15 09:40:00;;;;;;;;;;;7.60;99.90;;;;;;5093205;28;20348;-74
2022/11/15 09:42:33;;;;;;;;;;;7.60;99.90;;;;;;5092633;28;19908;-74
2022/11/15 09:45:09;;;;;;;;;;;7.60;99.90;;;;;;5093049;28;19998;-74
2022/11/15 09:47:47;;;;;;;;;;;7.70;99.90;;;;;;5092467;28;19951;-74
2022/11/15 09:50:15;;;;;;;;;;;7.70;99.90;;;;;;5092848;28;19908;-75
2022/11/15 09:52:42;;;;;;;;;;;7.80;99.90;;;;;;5092486;28;20082;-74
2022/11/15 09:55:14;;;;;;;;;;;7.90;99.90;;;;;;5092820;28;20478;-74
2022/11/15 09:57:46;;;;;;;;;;;7.90;99.90;;;;;;5092300;28;19912;-75
2022/11/15 10:00:11;;;;;;;;;;;7.90;99.90;;;;;;5092954;28;20238;-74
2022/11/15 10:02:51;;;;;;;;;;;8.00;99.90;;;;;;5092407;28;19915;-74
2022/11/15 10:05:19;;;;;;;;;;;8.10;99.90;;;;;;5092947;28;19960;-74
2022/11/15 10:07:47;;;;;;;;;;;8.20;99.90;;;;;;5092353;28;19924;-74
2022/11/15 10:10:13;;;;;;;;;;;8.30;99.90;;;;;;5096093;28;20394;-74
2022/11/15 10:12:39;;;;;;;;;;;8.40;99.90;;;;;;5099058;28;19962;-74
2022/11/15 10:15:13;;;;;;;;;;;8.60;99.90;;;;;;5103728;28;19908;-74
2022/11/15 10:17:41;;;;;;;;;;;8.70;99.90;;;;;;5105771;28;19991;-75
2022/11/15 10:20:07;;;;;;;;;;;8.90;99.90;;;;;;5103891;28;19966;-74
2022/11/15 10:23:05;;;;;;;;;;;9.00;99.90;;;;;;5098912;28;19940;-74
2022/11/15 10:25:31;;;;;;;;;;;9.20;99.90;;;;;;5074905;28;20387;-75
2022/11/15 10:28:01;;;;;;;;;;;9.30;99.90;;;;;;5099418;28;19916;-75
2022/11/15 10:30:34;;;;;;;;;;;9.40;99.90;;;;;;5098116;28;20315;-75
2022/11/15 10:33:10;;;;;;;;;;;9.50;99.90;;;;;;5099496;28;19915;-73
2022/11/15 10:35:35;;;;;;;;;;;9.50;99.90;;;;;;5098536;28;19908;-75
2022/11/15 10:38:05;;;;;;;;;;;9.50;99.90;;;;;;5098952;28;20003;-74
2022/11/15 10:40:31;;;;;;;;;;;9.50;99.90;;;;;;5097399;28;19908;-75
2022/11/15 10:43:13;;;;;;;;;;;9.40;99.90;;;;;;5099552;28;20050;-74
2022/11/15 10:45:39;;;;;;;;;;;9.40;99.90;;;;;;5098781;28;19912;-74
2022/11/15 10:48:19;;;;;;;;;;;9.40;99.90;;;;;;5098782;28;19916;-73
2022/11/15 10:50:45;;;;;;;;;;;9.40;99.90;;;;;;5097147;28;20264;-74
2022/11/15 10:53:17;;;;;;;;;;;9.40;99.90;;;;;;5098987;28;19953;-74
2022/11/15 10:55:46;;;;;;;;;;;9.40;99.90;;;;;;5098569;28;19947;-74
2022/11/15 10:58:27;;;;;;;;;;;9.40;99.90;;;;;;5099395;28;20303;-74
2022/11/15 11:00:53;;;;;;;;;;;9.50;99.90;;;;;;5098914;28;19908;-75
2022/11/15 11:03:29;;;;;;;;;;;9.50;99.90;;;;;;5098881;28;20327;-74
2022/11/15 11:06:15;;;;;;;;;;;9.50;99.90;;;;;;5098901;28;19986;-74
2022/11/15 11:08:52;;;;;;;;;;;9.50;99.90;;;;;;5097583;28;19925;-74
2022/11/15 11:11:18;;;;;;;;;;;9.60;99.90;;;;;;5098961;28;19909;-73
2022/11/15 11:13:43;;;;;;;;;;;9.60;99.90;;;;;;5098190;28;19951;-73
2022/11/15 11:16:09;;;;;;;;;;;9.60;99.90;;;;;;5098896;28;19966;-74
2022/11/15 11:18:43;;;;;;;;;;;9.60;99.90;;;;;;5098419;28;19958;-74
2022/11/15 11:21:11;;;;;;;;;;;9.70;99.90;;;;;;5097326;28;19999;-74
2022/11/15 11:23:43;;;;;;;;;;;9.70;99.90;;;;;;5095098;28;19911;-74
2022/11/15 11:26:21;;;;;;;;;;;9.70;99.90;;;;;;5096956;28;20355;-74
2022/11/15 11:28:52;;;;;;;;;;;9.70;99.90;;;;;;5096758;28;19919;-74
2022/11/15 11:31:32;;;;;;;;;;;9.70;99.90;;;;;;5096441;28;19915;-73
2022/11/15 11:33:58;;;;;;;;;;;9.70;99.90;;;;;;5095422;28;19908;-74
2022/11/15 11:36:31;;;;;;;;;;;9.70;99.90;;;;;;5095590;28;20349;-75
2022/11/15 11:39:00;;;;;;;;;;;9.70;99.90;;;;;;5095669;28;19908;-74
2022/11/15 11:41:41;;;;;;;;;;;9.80;99.90;;;;;;5095190;28;19908;-74
2022/11/15 11:44:06;;;;;;;;;;;9.80;99.90;;;;;;5095212;28;19947;-73
2022/11/15 11:46:41;;;;;;;;;;;9.80;99.90;;;;;;5095219;28;19908;-73
2022/11/15 11:49:10;;;;;;;;;;;9.80;99.90;;;;;;5095552;28;19916;-74
2022/11/15 11:51:39;;;;;;;;;;;9.80;99.90;;;;;;5094940;28;19915;-73
2022/11/15 11:54:11;;;;;;;;;;;9.80;99.90;;;;;;5094892;28;19953;-73
2022/11/15 11:56:39;;;;;;;;;;;9.80;99.90;;;;;;5095409;28;19970;-74
2022/11/15 11:59:12;;;;;;;;;;;9.90;99.90;;;;;;5094984;28;19995;-73
2022/11/15 12:01:41;;;;;;;;;;;9.90;99.90;;;;;;5093752;28;19985;-75
2022/11/15 12:04:10;;;;;;;;;;;9.90;99.90;;;;;;5093397;28;19915;-75
2022/11/15 12:06:42;;;;;;;;;;;9.90;99.90;;;;;;5093826;28;19927;-73
2022/11/15 12:09:30;;;;;;;;;;;9.90;99.90;;;;;;5094248;28;19923;-73
2022/11/15 12:11:56;;;;;;;;;;;9.90;99.90;;;;;;5094668;28;19920;-74
2022/11/15 12:14:29;;;;;;;;;;;9.90;99.90;;;;;;5093990;28;20057;-74
2022/11/15 12:16:55;;;;;;;;;;;10.00;99.90;;;;;;5094109;28;19915;-74
2022/11/15 12:19:20;;;;;;;;;;;10.00;99.90;;;;;;5094398;28;19908;-74
2022/11/15 12:22:02;;;;;;;;;;;10.00;99.90;;;;;;5093599;28;19908;-75
2022/11/15 12:24:37;;;;;;;;;;;10.00;99.90;;;;;;5093873;28;20004;-75
2022/11/15 12:27:07;;;;;;;;;;;10.00;99.90;;;;;;5094079;28;19908;-75
2022/11/15 12:29:32;;;;;;;;;;;9.90;99.90;;;;;;5091917;28;19916;-75
2022/11/15 12:31:59;;;;;;;;;;;10.00;99.90;;;;;;5093873;28;19939;-73
2022/11/15 12:34:33;;;;;;;;;;;10.10;99.90;;;;;;5092714;28;19908;-73
2022/11/15 12:36:59;;;;;;;;;;;10.10;99.90;;;;;;5093981;28;20363;-74
2022/11/15 12:39:43;;;;;;;;;;;10.10;99.90;;;;;;5093678;28;19973;-75
2022/11/15 12:42:11;;;;;;;;;;;10.20;99.90;;;;;;5093435;28;20396;-75
2022/11/15 12:44:38;;;;;;;;;;;10.20;99.90;;;;;;5093177;28;19908;-74
2022/11/15 12:47:09;;;;;;;;;;;10.20;99.90;;;;;;5093323;28;19966;-73
2022/11/15 12:49:35;;;;;;;;;;;10.20;99.90;;;;;;5093125;28;19923;-73
2022/11/15 12:52:00;;;;;;;;;;;10.20;99.90;;;;;;5093450;28;19912;-74
2022/11/15 12:54:30;;;;;;;;;;;10.20;99.90;;;;;;5093304;28;20007;-74
2022/11/15 12:57:02;;;;;;;;;;;10.30;99.90;;;;;;5093445;28;19908;-74
2022/11/15 12:59:46;;;;;;;;;;;10.30;99.90;;;;;;5093368;28;19961;-74
2022/11/15 13:02:23;;;;;;;;;;;10.30;99.90;;;;;;5092649;28;20288;-73
2022/11/15 13:04:50;;;;;;;;;;;10.30;99.90;;;;;;5092559;28;19916;-74
2022/11/15 13:07:34;;;;;;;;;;;10.30;99.90;;;;;;5092335;28;20009;-74
2022/11/15 13:09:59;;;;;;;;;;;10.40;99.90;;;;;;5093352;28;19923;-73
2022/11/15 13:12:25;;;;;;;;;;;10.50;99.90;;;;;;5093190;28;19908;-75
2022/11/15 13:14:50;;;;;;;;;;;10.50;99.90;;;;;;5092333;28;20369;-75
2022/11/15 13:17:22;;;;;;;;;;;10.50;99.90;;;;;;5093050;28;20358;-75
2022/11/15 13:19:59;;;;;;;;;;;10.50;99.90;;;;;;5092406;28;20424;-74
2022/11/15 13:25:18;;;;;;;;;;;10.50;99.90;;;;;;5092974;28;19973;-74
2022/11/15 13:27:46;;;;;;;;;;;10.50;99.90;;;;;;5092062;28;19970;-74
2022/11/15 13:30:18;;;;;;;;;;;10.50;99.90;;;;;;5093365;28;20376;-75
2022/11/15 13:32:44;;;;;;;;;;;10.40;99.90;;;;;;5092100;28;19915;-74
2022/11/15 13:35:14;;;;;;;;;;;10.40;99.90;;;;;;5093065;28;20276;-73
2022/11/15 13:37:40;;;;;;;;;;;10.40;99.90;;;;;;5092203;28;19934;-74
2022/11/15 13:40:10;;;;;;;;;;;10.40;99.90;;;;;;5092766;28;19908;-75
2022/11/15 13:42:36;;;;;;;;;;;10.40;99.90;;;;;;5091976;28;19908;-75
2022/11/15 13:45:04;;;;;;;;;;;10.40;99.90;;;;;;5090938;28;19915;-74
2022/11/15 13:47:31;;;;;;;;;;;10.40;99.90;;;;;;5092172;28;20432;-75
2022/11/15 13:49:57;;;;;;;;;;;10.50;99.90;;;;;;5092799;28;19918;-74
2022/11/15 13:52:24;;;;;;;;;;;10.50;99.90;;;;;;5092231;28;19995;-74
2022/11/15 13:55:03;;;;;;;;;;;10.50;99.90;;;;;;5091545;28;19920;-74
2022/11/15 13:57:32;;;;;;;;;;;10.50;99.90;;;;;;5092553;28;19908;-74
2022/11/15 14:00:03;;;;;;;;;;;10.50;99.90;;;;;;5092375;28;19916;-74
2022/11/15 14:02:30;;;;;;;;;;;10.50;99.90;;;;;;5092617;28;19909;-74
2022/11/15 14:04:57;;;;;;;;;;;10.40;99.90;;;;;;5091966;28;19976;-74
2022/11/15 14:07:24;;;;;;;;;;;10.40;99.90;;;;;;5092314;28;19920;-74
2022/11/15 14:09:49;;;;;;;;;;;10.40;99.90;;;;;;5090531;28;19916;-75
2022/11/15 14:12:31;;;;;;;;;;;10.40;99.90;;;;;;5093115;28;19915;-75
2022/11/15 14:15:01;;;;;;;;;;;10.50;99.90;;;;;;5092395;28;19908;-75
2022/11/15 14:17:30;;;;;;;;;;;10.50;99.90;;;;;;5092704;28;19908;-74
2022/11/15 14:19:56;;;;;;;;;;;10.50;99.90;;;;;;5092408;28;20069;-73
2022/11/15 14:22:25;;;;;;;;;;;10.40;99.90;;;;;;5092750;28;19909;-73
2022/11/15 14:25:09;;;;;;;;;;;10.40;99.90;;;;;;5092180;28;19919;-73
2022/11/15 14:27:35;;;;;;;;;;;10.40;99.90;;;;;;5092045;28;19969;-73
2022/11/15 14:30:00;;;;;;;;;;;10.40;99.90;;;;;;5092859;28;20008;-73
2022/11/15 14:32:28;;;;;;;;;;;10.40;99.90;;;;;;5093151;28;19908;-73
2022/11/15 14:34:54;;;;;;;;;;;10.40;99.90;;;;;;5092012;28;19914;-74
2022/11/15 14:37:27;;;;;;;;;;;10.40;99.90;;;;;;5092683;28;20039;-74
2022/11/15 14:39:53;;;;;;;;;;;10.30;99.90;;;;;;5092171;28;20499;-74
2022/11/15 14:42:19;;;;;;;;;;;10.30;99.90;;;;;;5092621;28;19908;-74
2022/11/15 14:44:45;;;;;;;;;;;10.30;99.90;;;;;;5091943;28;19919;-74